Terminal Aerodrome Forecast
Issued by NWS Grand Forks, ND

Home | Current Version | Previous Version | Text Only | Print | Product List | Glossary Off
Versions: 1 2 3 4 5 6 7 8 9 10 11 12 13 14 15 16 17

000
FTUS43 KFGF 291720
TAFFAR
TAF
KFAR 291720Z 2918/3018 29008KT P6SM SCT020 BKN030
     FM291900 30011G18KT P6SM BKN040
     FM292000 30012G19KT P6SM SCT250
     FM292200 23006KT P6SM SKC=

USA.gov is the U.S. government's official web portal to all federal, state and local government web resources and services.